Time;durP1;ratioP1;P1;durP2;ratioP2;P2;SDS_P1;SDS_P2;PMS_P1;PMS_P2;Temp;Humidity;BMP_temperature;BMP_pressure;BME280_temperature;BME280_humidity;BME280_pressure;Samples;Min_cycle;Max_cycle;Signal;HPM_P1;HPM_P2
2021/12/02 00:01:12;;;;;;;25.13;18.25;;;7.60;68.90;;;;;;5052753;28;20036;-24
2021/12/02 00:03:38;;;;;;;13.02;8.15;;;7.60;68.10;;;;;;5052952;28;20021;-24
2021/12/02 00:06:09;;;;;;;16.13;10.40;;;7.60;67.90;;;;;;5054854;28;20037;-24
2021/12/02 00:08:36;;;;;;;14.60;10.05;;;7.60;67.80;;;;;;5056709;28;20033;-24
2021/12/02 00:11:03;;;;;;;15.60;10.68;;;7.60;67.80;;;;;;5056802;28;20100;-24
2021/12/02 00:13:31;;;;;;;16.55;10.68;;;7.60;67.80;;;;;;5056627;28;20083;-24
2021/12/02 00:16:18;;;;;;;14.68;9.35;;;7.60;67.70;;;;;;5056727;28;20535;-24
2021/12/02 00:21:18;;;;;;;11.63;7.18;;;7.60;67.80;;;;;;5056697;28;20436;-24
2021/12/02 00:24:03;;;;;;;15.90;9.95;;;7.60;67.80;;;;;;5056611;28;20035;-23
2021/12/02 00:26:31;;;;;;;14.02;9.15;;;7.60;67.90;;;;;;5056389;28;20473;-24
2021/12/02 00:29:00;;;;;;;10.82;6.85;;;7.50;67.90;;;;;;5056752;28;20024;-23
2021/12/02 00:31:32;;;;;;;15.80;9.82;;;7.50;67.80;;;;;;5057077;28;20025;-23
2021/12/02 00:34:05;;;;;;;17.55;12.52;;;7.50;67.80;;;;;;5056690;28;20055;-24
2021/12/02 00:36:33;;;;;;;21.10;14.07;;;7.50;67.80;;;;;;5056274;28;20519;-23
2021/12/02 00:39:04;;;;;;;14.80;9.85;;;7.50;67.80;;;;;;5055092;28;20017;-24
2021/12/02 00:41:30;;;;;;;22.70;14.90;;;7.50;67.90;;;;;;5055117;28;20032;-23
2021/12/02 00:43:58;;;;;;;17.17;11.55;;;7.60;68.00;;;;;;5056144;28;20393;-23
2021/12/02 00:46:27;;;;;;;14.95;9.88;;;7.50;68.10;;;;;;5056387;28;20033;-23
2021/12/02 00:48:53;;;;;;;21.75;16.40;;;7.50;68.20;;;;;;5056459;28;20393;-24
2021/12/02 00:51:20;;;;;;;16.20;10.82;;;7.50;68.40;;;;;;5054826;28;20025;-23
2021/12/02 00:53:52;;;;;;;20.13;13.05;;;7.50;68.40;;;;;;5055961;28;20492;-22
2021/12/02 00:56:23;;;;;;;16.92;11.45;;;7.50;68.40;;;;;;5055834;28;20021;-22
2021/12/02 00:58:49;;;;;;;12.13;7.57;;;7.40;68.50;;;;;;5055639;28;20512;-23
2021/12/02 01:01:17;;;;;;;11.02;7.25;;;7.40;68.50;;;;;;5055901;28;20496;-22
2021/12/02 01:03:43;;;;;;;17.42;11.52;;;7.40;68.50;;;;;;5055869;28;20021;-21
2021/12/02 01:06:10;;;;;;;14.23;9.20;;;7.40;68.50;;;;;;5056089;28;20032;-21
2021/12/02 01:08:37;;;;;;;16.30;10.52;;;7.40;68.90;;;;;;5055794;28;20017;-25
2021/12/02 01:11:06;;;;;;;14.63;9.93;;;7.40;68.80;;;;;;5056149;28;20017;-23
2021/12/02 01:13:32;;;;;;;13.63;9.13;;;7.40;68.70;;;;;;5055819;28;20025;-22
2021/12/02 01:15:59;;;;;;;11.98;7.80;;;7.40;68.80;;;;;;5055613;28;20017;-21
2021/12/02 01:18:25;;;;;;;11.95;7.55;;;7.40;68.80;;;;;;5054818;28;20029;-23
2021/12/02 01:20:53;;;;;;;10.07;7.05;;;7.40;69.00;;;;;;5055553;28;20033;-23
2021/12/02 01:23:21;;;;;;;16.08;10.27;;;7.40;69.00;;;;;;5055758;28;20025;-20
2021/12/02 01:25:58;;;;;;;12.55;7.82;;;7.40;68.90;;;;;;5055744;28;20025;-23
2021/12/02 01:28:25;;;;;;;9.82;6.32;;;7.40;69.70;;;;;;5055148;28;20033;-22
2021/12/02 01:30:53;;;;;;;12.18;8.52;;;7.30;69.20;;;;;;5055337;28;20037;-24
2021/12/02 01:33:21;;;;;;;10.45;6.63;;;7.30;69.10;;;;;;5055507;28;20021;-22
2021/12/02 01:35:54;;;;;;;12.57;8.32;;;7.30;69.10;;;;;;5055511;28;20022;-23
2021/12/02 01:38:26;;;;;;;12.02;7.47;;;7.30;69.10;;;;;;5055364;28;20021;-24
2021/12/02 01:40:54;;;;;;;13.20;8.45;;;7.30;69.40;;;;;;5055771;28;20031;-23
2021/12/02 01:43:23;;;;;;;16.75;10.43;;;7.40;69.40;;;;;;5055017;28;20040;-22
2021/12/02 01:45:49;;;;;;;12.32;7.38;;;7.30;70.10;;;;;;5055056;28;20489;-20
2021/12/02 01:48:25;;;;;;;10.43;6.80;;;7.30;70.00;;;;;;5054806;28;20094;-22
2021/12/02 01:51:06;;;;;;;15.20;9.45;;;7.40;69.80;;;;;;5055224;28;20029;-21
2021/12/02 01:53:39;;;;;;;14.90;10.27;;;7.30;69.80;;;;;;5055046;28;20021;-21
2021/12/02 01:56:11;;;;;;;15.13;9.60;;;7.30;70.00;;;;;;5054913;28;20033;-22
2021/12/02 01:58:44;;;;;;;14.77;8.60;;;7.30;70.10;;;;;;5054506;28;20053;-22
2021/12/02 02:01:17;;;;;;;12.00;7.65;;;7.30;70.10;;;;;;5055324;28;20074;-22
2021/12/02 02:03:44;;;;;;;16.23;10.70;;;7.30;70.50;;;;;;5055395;28;20021;-22
2021/12/02 02:06:10;;;;;;;15.02;8.68;;;7.30;70.30;;;;;;5054775;28;20044;-22
2021/12/02 02:08:44;;;;;;;16.13;9.82;;;7.20;70.50;;;;;;5054436;28;20036;-22
2021/12/02 02:11:11;;;;;;;16.47;10.77;;;7.20;70.70;;;;;;5054927;28;20047;-21
2021/12/02 02:13:40;;;;;;;15.30;8.95;;;7.20;70.70;;;;;;5054739;28;20263;-22
2021/12/02 02:16:07;;;;;;;15.73;10.60;;;7.20;70.80;;;;;;5054781;28;20021;-19
2021/12/02 02:18:34;;;;;;;15.80;10.18;;;7.20;71.20;;;;;;5054255;28;20029;-21
2021/12/02 02:21:03;;;;;;;13.27;8.80;;;7.20;71.10;;;;;;5054417;28;20542;-19
2021/12/02 02:23:33;;;;;;;14.45;10.10;;;7.20;70.90;;;;;;5054672;28;20024;-21
2021/12/02 02:25:59;;;;;;;16.02;10.10;;;7.20;71.00;;;;;;5054202;28;20029;-22
2021/12/02 02:28:28;;;;;;;17.02;11.00;;;7.20;71.20;;;;;;5053679;28;20025;-20
2021/12/02 02:30:55;;;;;;;16.63;10.00;;;7.20;71.10;;;;;;5052961;28;20028;-22
2021/12/02 02:33:22;;;;;;;16.23;10.95;;;7.10;71.20;;;;;;5052953;28;20063;-23
2021/12/02 02:35:49;;;;;;;16.23;10.93;;;7.10;71.30;;;;;;5054440;28;20041;-22
2021/12/02 02:38:15;;;;;;;15.82;10.40;;;7.10;71.40;;;;;;5054186;28;20056;-23
2021/12/02 02:40:45;;;;;;;12.77;7.75;;;7.10;71.50;;;;;;5053993;28;20025;-21
2021/12/02 02:43:20;;;;;;;14.15;9.38;;;7.10;71.60;;;;;;5053903;28;20021;-21
2021/12/02 02:45:46;;;;;;;13.80;8.73;;;7.00;71.70;;;;;;5053976;28;20068;-22
2021/12/02 02:48:12;;;;;;;14.70;9.23;;;7.00;72.00;;;;;;5042733;28;20033;-22
2021/12/02 02:50:47;;;;;;;14.70;9.32;;;7.00;71.80;;;;;;5111159;27;20469;-19
2021/12/02 02:53:19;;;;;;;16.92;10.63;;;7.00;71.80;;;;;;5111038;28;20115;-18
2021/12/02 02:55:52;;;;;;;10.65;6.57;;;6.90;71.90;;;;;;5111236;28;20027;-17
2021/12/02 03:08:53;;;;;;;11.02;6.82;;;7.00;71.70;;;;;;5110978;28;20069;-18
2021/12/02 03:11:24;;;;;;;9.70;5.78;;;7.00;71.70;;;;;;5110698;28;20081;-18
2021/12/02 03:13:52;;;;;;;9.35;6.70;;;7.00;71.70;;;;;;5110513;28;20499;-17
2021/12/02 03:19:05;;;;;;;13.18;9.77;;;7.00;71.70;;;;;;5110879;28;20039;-19
2021/12/02 03:21:31;;;;;;;9.27;5.65;;;7.10;72.00;;;;;;5111050;28;20024;-19
2021/12/02 03:24:00;;;;;;;10.63;6.45;;;7.10;71.70;;;;;;5110370;28;20611;-19
2021/12/02 03:26:28;;;;;;;8.55;5.25;;;7.10;71.70;;;;;;5110475;28;20028;-19
2021/12/02 03:28:55;;;;;;;13.23;8.82;;;7.10;71.60;;;;;;5110122;28;20020;-19
2021/12/02 03:31:22;;;;;;;9.80;5.75;;;7.10;71.70;;;;;;5110258;28;20053;-20
2021/12/02 03:33:49;;;;;;;10.05;5.65;;;7.10;71.70;;;;;;5110434;28;20028;-19
2021/12/02 03:36:17;;;;;;;11.18;7.97;;;7.20;71.60;;;;;;5110248;28;20031;-25
2021/12/02 03:38:44;;;;;;;11.68;7.80;;;7.10;71.60;;;;;;5110782;28;20024;-19
2021/12/02 03:41:10;;;;;;;10.30;5.95;;;7.20;71.80;;;;;;5110700;28;20020;-19
2021/12/02 03:43:42;;;;;;;10.00;6.38;;;7.20;71.70;;;;;;5110010;28;20034;-19
2021/12/02 03:46:10;;;;;;;7.90;5.22;;;7.20;71.60;;;;;;5109983;28;20058;-20
2021/12/02 03:48:37;;;;;;;9.48;4.93;;;7.20;71.70;;;;;;5109410;28;20024;-19
2021/12/02 03:51:04;;;;;;;9.48;6.20;;;7.20;71.60;;;;;;5110146;28;20077;-19
2021/12/02 03:53:31;;;;;;;9.25;5.43;;;7.20;71.60;;;;;;5109876;28;20118;-19
2021/12/02 03:55:57;;;;;;;9.70;6.43;;;7.20;71.90;;;;;;5110017;28;20178;-18
2021/12/02 03:58:23;;;;;;;9.20;5.53;;;7.20;71.60;;;;;;5109480;28;20031;-19
2021/12/02 04:00:49;;;;;;;10.50;6.57;;;7.20;71.70;;;;;;5102234;28;20115;-19
2021/12/02 04:03:15;;;;;;;6.50;4.45;;;7.20;71.80;;;;;;5096429;28;20016;-19
2021/12/02 04:05:41;;;;;;;9.30;6.05;;;7.20;72.10;;;;;;5096396;28;20116;-18
2021/12/02 04:08:10;;;;;;;8.05;4.65;;;7.20;71.70;;;;;;5096209;28;20564;-19
2021/12/02 04:10:38;;;;;;;11.63;7.25;;;7.20;71.90;;;;;;5095990;28;20078;-19
2021/12/02 04:13:11;;;;;;;10.43;6.30;;;7.20;72.10;;;;;;5095814;28;20491;-19
2021/12/02 04:15:40;;;;;;;11.18;5.75;;;7.20;72.10;;;;;;5095982;28;20073;-19
2021/12/02 04:18:08;;;;;;;10.52;7.03;;;7.20;72.10;;;;;;5096152;28;20020;-19
2021/12/02 04:20:37;;;;;;;11.02;6.88;;;7.20;72.50;;;;;;5095635;28;20118;-19
2021/12/02 04:23:04;;;;;;;11.23;7.70;;;7.30;72.50;;;;;;5095744;28;20047;-19
2021/12/02 04:25:30;;;;;;;11.25;6.65;;;7.30;72.50;;;;;;5095980;28;20032;-19
2021/12/02 04:27:56;;;;;;;14.38;8.85;;;7.30;72.30;;;;;;5095539;28;20548;-19
2021/12/02 04:30:25;;;;;;;9.68;5.97;;;7.30;72.30;;;;;;5095312;28;20032;-19
2021/12/02 04:32:52;;;;;;;6.47;4.15;;;7.30;72.30;;;;;;5095843;28;20032;-19
2021/12/02 04:35:19;;;;;;;5.82;3.80;;;7.30;72.20;;;;;;5095834;28;20071;-19
2021/12/02 04:37:48;;;;;;;7.47;4.45;;;7.30;72.20;;;;;;5095511;28;20058;-19
2021/12/02 04:40:18;;;;;;;7.15;4.13;;;7.30;72.20;;;;;;5095456;28;20027;-19
2021/12/02 04:42:45;;;;;;;11.30;6.35;;;7.30;72.10;;;;;;5095685;28;20024;-19
2021/12/02 04:45:12;;;;;;;12.32;7.47;;;7.30;72.50;;;;;;5094010;28;20085;-18
2021/12/02 04:47:39;;;;;;;6.72;4.63;;;7.40;72.20;;;;;;5095234;28;20106;-19
2021/12/02 04:50:08;;;;;;;5.90;3.58;;;7.40;72.20;;;;;;5094961;28;20100;-20
2021/12/02 04:52:35;;;;;;;9.23;5.75;;;7.40;72.10;;;;;;5094954;28;20484;-19
2021/12/02 04:55:02;;;;;;;6.22;4.13;;;7.50;72.00;;;;;;5095144;28;20046;-19
2021/12/02 04:57:28;;;;;;;9.38;4.95;;;7.50;72.10;;;;;;5095040;28;20035;-19
2021/12/02 04:59:54;;;;;;;11.43;7.50;;;7.50;72.10;;;;;;5095242;28;20024;-19
2021/12/02 05:02:20;;;;;;;7.97;5.15;;;7.50;72.40;;;;;;5095074;28;20024;-19
2021/12/02 05:04:46;;;;;;;10.02;6.13;;;7.50;72.00;;;;;;5095239;28;20055;-19
2021/12/02 05:07:12;;;;;;;9.75;6.22;;;7.50;72.00;;;;;;5094792;28;20046;-19
2021/12/02 05:09:37;;;;;;;9.52;5.70;;;7.50;72.30;;;;;;5094748;28;20068;-19
2021/12/02 05:12:04;;;;;;;7.72;4.65;;;7.50;72.30;;;;;;5094079;28;20024;-19
2021/12/02 05:14:30;;;;;;;12.27;8.95;;;7.40;72.10;;;;;;5094288;28;20028;-19
2021/12/02 05:16:56;;;;;;;13.02;7.43;;;7.50;72.60;;;;;;5093407;28;20024;-20
2021/12/02 05:19:22;;;;;;;9.80;5.97;;;7.40;72.40;;;;;;5094948;28;20016;-20
2021/12/02 05:21:48;;;;;;;14.23;7.38;;;7.50;72.40;;;;;;5094884;28;20024;-19
2021/12/02 05:24:14;;;;;;;10.68;6.28;;;7.50;72.50;;;;;;5094674;28;20099;-19
2021/12/02 05:26:40;;;;;;;12.98;8.07;;;7.50;72.50;;;;;;5094456;28;20031;-19
2021/12/02 05:29:06;;;;;;;11.15;6.68;;;7.50;72.50;;;;;;5094309;28;20024;-19
2021/12/02 05:31:32;;;;;;;12.15;7.00;;;7.50;72.60;;;;;;5094409;28;20039;-19
2021/12/02 05:33:58;;;;;;;13.80;8.13;;;7.50;72.60;;;;;;5094664;28;20111;-19
2021/12/02 05:36:24;;;;;;;11.45;7.57;;;7.50;72.80;;;;;;5094062;28;20557;-19
2021/12/02 05:38:50;;;;;;;15.18;9.48;;;7.50;72.60;;;;;;5094645;28;20099;-18
2021/12/02 05:41:17;;;;;;;14.93;10.52;;;7.40;72.80;;;;;;5094292;28;20491;-20
2021/12/02 05:43:43;;;;;;;11.98;6.75;;;7.40;73.10;;;;;;5094069;28;20035;-20
2021/12/02 05:46:09;;;;;;;14.95;9.32;;;7.40;73.00;;;;;;5094187;28;20551;-19
2021/12/02 05:48:35;;;;;;;17.70;12.07;;;7.40;72.70;;;;;;5093818;28;20107;-21
2021/12/02 05:51:02;;;;;;;17.33;9.95;;;7.40;73.40;;;;;;5094371;28;20047;-20
2021/12/02 05:53:28;;;;;;;12.77;7.93;;;7.40;73.90;;;;;;5094287;28;20038;-19
2021/12/02 05:55:54;;;;;;;16.23;9.65;;;7.40;73.30;;;;;;5094246;28;20414;-20
2021/12/02 05:58:20;;;;;;;12.18;7.47;;;7.40;73.20;;;;;;5094233;28;20024;-20
2021/12/02 06:00:46;;;;;;;16.92;10.40;;;7.40;73.50;;;;;;5094465;28;20039;-20
2021/12/02 06:03:12;;;;;;;19.33;13.95;;;7.40;73.10;;;;;;5094112;28;20028;-20
2021/12/02 06:05:39;;;;;;;17.45;11.27;;;7.30;73.50;;;;;;5092604;28;20032;-19
2021/12/02 06:08:05;;;;;;;16.35;10.65;;;7.30;73.30;;;;;;5093710;28;20497;-20
2021/12/02 06:10:32;;;;;;;17.30;10.75;;;7.30;73.80;;;;;;5093693;28;20036;-19
2021/12/02 06:12:58;;;;;;;14.27;8.95;;;7.20;73.20;;;;;;5093637;28;20036;-20
2021/12/02 06:15:24;;;;;;;16.77;11.65;;;7.30;73.20;;;;;;5093550;28;20035;-19
2021/12/02 06:17:50;;;;;;;22.95;14.40;;;7.20;73.30;;;;;;5094216;28;20488;-19
2021/12/02 06:20:20;;;;;;;24.00;15.35;;;7.20;73.50;;;;;;5093390;28;20020;-19
2021/12/02 06:22:47;;;;;;;18.27;12.43;;;7.20;73.50;;;;;;5094134;28;20024;-19
2021/12/02 06:27:45;;;;;;;15.90;9.45;;;7.20;73.60;;;;;;5094358;28;20032;-19
2021/12/02 06:30:13;;;;;;;17.27;11.30;;;7.20;73.50;;;;;;5093877;28;20020;-20
2021/12/02 06:32:39;;;;;;;14.30;9.45;;;7.20;74.30;;;;;;5093336;28;20084;-20
2021/12/02 06:35:07;;;;;;;21.38;14.38;;;7.10;74.30;;;;;;5093744;28;20020;-19
2021/12/02 06:37:33;;;;;;;17.88;11.93;;;7.10;74.00;;;;;;5093324;28;20074;-20
2021/12/02 06:39:59;;;;;;;15.65;10.02;;;7.10;74.00;;;;;;5093303;28;20024;-20
2021/12/02 06:42:25;;;;;;;16.15;10.55;;;7.10;74.00;;;;;;5093375;28;20081;-20
2021/12/02 06:44:51;;;;;;;16.67;9.90;;;7.10;74.00;;;;;;5093336;28;20376;-19
2021/12/02 06:47:18;;;;;;;16.00;10.32;;;7.00;73.90;;;;;;5093222;28;20499;-19
2021/12/02 06:49:44;;;;;;;20.52;12.27;;;7.00;73.90;;;;;;5093025;28;20131;-20
2021/12/02 06:52:12;;;;;;;10.93;7.20;;;7.00;74.10;;;;;;5093168;28;20555;-19
2021/12/02 06:54:39;;;;;;;16.67;10.45;;;7.10;74.00;;;;;;5093429;28;20028;-20
2021/12/02 06:57:06;;;;;;;13.05;8.25;;;7.10;73.90;;;;;;5093469;28;20024;-20
2021/12/02 06:59:33;;;;;;;12.63;7.68;;;7.10;74.20;;;;;;5093270;28;20069;-19
2021/12/02 07:01:59;;;;;;;19.95;13.20;;;7.10;74.10;;;;;;5093023;28;20035;-20
2021/12/02 07:04:25;;;;;;;20.23;12.05;;;7.10;74.70;;;;;;5092839;28;20024;-20
2021/12/02 07:06:51;;;;;;;12.00;7.93;;;7.10;73.90;;;;;;5092972;28;20154;-19
2021/12/02 07:09:17;;;;;;;14.77;9.43;;;7.10;73.90;;;;;;5092933;28;20032;-20
2021/12/02 07:11:46;;;;;;;9.40;5.43;;;7.10;73.90;;;;;;5092971;28;20035;-19
2021/12/02 07:14:16;;;;;;;10.52;6.53;;;7.10;73.80;;;;;;5092623;28;20028;-20
2021/12/02 07:16:43;;;;;;;13.05;8.70;;;7.20;73.80;;;;;;5092957;28;20028;-18
2021/12/02 07:19:11;;;;;;;14.75;8.77;;;7.20;73.90;;;;;;5092915;28;20131;-19
2021/12/02 07:21:39;;;;;;;16.45;11.20;;;7.20;74.20;;;;;;5092875;28;20028;-20
2021/12/02 07:24:08;;;;;;;23.73;15.48;;;7.20;73.90;;;;;;5093127;28;20158;-19
2021/12/02 07:26:40;;;;;;;26.27;18.98;;;7.20;73.80;;;;;;5092592;28;20139;-19
2021/12/02 07:29:07;;;;;;;16.92;12.63;;;7.20;73.80;;;;;;5092692;28;20024;-19
2021/12/02 07:31:35;;;;;;;18.98;13.07;;;7.30;73.70;;;;;;5093098;28;20032;-19
2021/12/02 07:34:03;;;;;;;23.60;15.63;;;7.30;74.00;;;;;;5093092;28;20024;-20
2021/12/02 07:36:31;;;;;;;18.65;12.70;;;7.30;73.90;;;;;;5094512;28;20395;-19
2021/12/02 07:38:59;;;;;;;12.52;8.27;;;7.30;73.90;;;;;;5096526;28;20111;-20
2021/12/02 07:41:25;;;;;;;11.07;7.50;;;7.30;73.80;;;;;;5096892;28;20480;-19
2021/12/02 07:43:51;;;;;;;13.80;9.27;;;7.40;73.70;;;;;;5096718;28;20027;-18
2021/12/02 07:46:17;;;;;;;14.25;8.75;;;7.40;73.70;;;;;;5094962;28;20119;-19
2021/12/02 07:48:43;;;;;;;19.80;13.68;;;7.40;73.80;;;;;;5096116;28;20052;-18
2021/12/02 07:51:12;;;;;;;11.45;7.43;;;7.40;73.80;;;;;;5096776;28;20024;-19
2021/12/02 07:53:45;;;;;;;11.85;7.75;;;7.50;73.70;;;;;;5096634;28;20067;-19
2021/12/02 07:56:14;;;;;;;22.10;15.45;;;7.50;73.80;;;;;;5096338;28;20081;-19
2021/12/02 07:58:43;;;;;;;15.88;10.30;;;7.50;73.80;;;;;;5096434;28;20028;-19
2021/12/02 08:01:10;;;;;;;12.35;7.65;;;7.50;73.70;;;;;;5096367;28;20016;-20
2021/12/02 08:03:38;;;;;;;14.35;9.60;;;7.50;73.80;;;;;;5096445;28;20024;-19
2021/12/02 08:06:04;;;;;;;25.23;17.80;;;7.50;73.80;;;;;;5096404;28;20081;-19
2021/12/02 08:08:30;;;;;;;19.52;11.23;;;7.60;73.90;;;;;;5095805;28;20017;-19
2021/12/02 08:10:56;;;;;;;11.50;6.90;;;7.60;73.90;;;;;;5095971;28;20072;-19
2021/12/02 08:13:30;;;;;;;11.05;6.72;;;7.60;73.80;;;;;;5096207;28;20150;-19
2021/12/02 08:15:56;;;;;;;13.77;9.57;;;7.60;73.80;;;;;;5096231;28;20077;-19
2021/12/02 08:18:22;;;;;;;9.98;6.28;;;7.70;73.70;;;;;;5095618;28;20020;-19
2021/12/02 08:20:48;;;;;;;13.73;7.22;;;7.70;73.60;;;;;;5096053;28;20028;-19
2021/12/02 08:23:14;;;;;;;24.75;15.98;;;7.80;73.60;;;;;;5095593;28;20094;-19
2021/12/02 08:25:40;;;;;;;20.63;12.90;;;7.80;73.90;;;;;;5096220;28;20024;-19
2021/12/02 08:28:06;;;;;;;21.38;14.57;;;7.80;73.70;;;;;;5096001;28;20035;-20
2021/12/02 08:30:36;;;;;;;16.10;9.82;;;7.90;73.60;;;;;;5095339;28;20031;-20
2021/12/02 08:33:03;;;;;;;25.75;16.02;;;7.90;73.50;;;;;;5095894;28;20077;-19
2021/12/02 08:35:29;;;;;;;16.48;11.25;;;7.90;73.60;;;;;;5095528;28;20059;-19
2021/12/02 08:38:01;;;;;;;15.88;10.30;;;7.90;73.60;;;;;;5095805;28;20024;-19
2021/12/02 08:40:34;;;;;;;12.75;8.98;;;7.90;73.50;;;;;;5095580;28;20085;-19
2021/12/02 08:43:02;;;;;;;14.38;9.40;;;7.90;73.40;;;;;;5095777;28;20039;-19
2021/12/02 08:45:30;;;;;;;18.27;12.15;;;7.90;73.40;;;;;;5095464;28;20458;-19
2021/12/02 08:47:58;;;;;;;21.67;13.85;;;8.00;73.40;;;;;;5095465;28;20031;-19
2021/12/02 08:50:24;;;;;;;16.08;11.00;;;8.00;73.40;;;;;;5094802;28;20044;-19
2021/12/02 08:52:54;;;;;;;17.77;11.77;;;8.00;73.40;;;;;;5096020;28;20119;-20
2021/12/02 08:55:22;;;;;;;17.40;11.90;;;8.00;73.40;;;;;;5093875;28;20035;-19
2021/12/02 08:57:50;;;;;;;18.70;12.82;;;8.00;73.50;;;;;;5095069;28;20027;-19
2021/12/02 09:00:19;;;;;;;15.30;9.60;;;8.10;73.40;;;;;;5094705;28;20028;-18
2021/12/02 09:02:45;;;;;;;18.75;12.52;;;8.10;73.40;;;;;;5095273;28;20024;-19
2021/12/02 09:05:11;;;;;;;32.03;20.30;;;8.20;73.50;;;;;;5093735;28;20035;-19
2021/12/02 09:07:37;;;;;;;16.27;11.55;;;8.20;73.50;;;;;;5095197;28;20133;-19
2021/12/02 09:10:06;;;;;;;23.75;14.88;;;8.30;73.40;;;;;;5094772;28;20508;-19
2021/12/02 09:12:33;;;;;;;20.52;12.68;;;8.30;73.40;;;;;;5094881;28;20020;-19
2021/12/02 09:14:59;;;;;;;20.63;13.38;;;8.30;73.40;;;;;;5094687;28;20023;-19
2021/12/02 09:17:26;;;;;;;14.95;9.52;;;8.40;73.30;;;;;;5095028;28;20040;-19
2021/12/02 09:19:52;;;;;;;16.25;10.07;;;8.40;73.40;;;;;;5094871;28;20050;-20
2021/12/02 09:22:18;;;;;;;24.00;15.82;;;8.40;73.30;;;;;;5094370;28;20039;-18
2021/12/02 09:24:44;;;;;;;18.50;12.35;;;8.50;73.20;;;;;;5094523;28;20115;-19
2021/12/02 09:27:11;;;;;;;22.65;15.00;;;8.40;73.20;;;;;;5095124;28;20032;-19
2021/12/02 09:29:37;;;;;;;14.35;8.85;;;8.50;73.40;;;;;;5094525;28;20024;-19
2021/12/02 09:32:04;;;;;;;13.90;8.95;;;8.50;73.00;;;;;;5094707;28;20024;-19
2021/12/02 09:34:31;;;;;;;12.90;8.02;;;8.60;73.00;;;;;;5094254;28;20098;-19
2021/12/02 09:36:57;;;;;;;16.98;10.55;;;8.70;72.90;;;;;;5093768;28;20016;-19
2021/12/02 09:39:30;;;;;;;20.02;12.75;;;8.70;73.10;;;;;;5094335;28;20024;-19
2021/12/02 09:41:56;;;;;;;19.65;12.35;;;8.70;73.40;;;;;;5094677;28;20028;-19
2021/12/02 09:44:22;;;;;;;13.93;9.05;;;8.70;73.10;;;;;;5093825;28;20024;-19
2021/12/02 09:46:49;;;;;;;15.60;10.20;;;8.80;73.00;;;;;;5092904;28;20032;-18
2021/12/02 09:49:16;;;;;;;15.85;10.93;;;8.80;73.00;;;;;;5093978;28;20044;-20
2021/12/02 09:52:01;;;;;;;13.27;7.97;;;8.80;73.10;;;;;;5094369;28;20039;-19
2021/12/02 09:54:32;;;;;;;20.30;9.68;;;8.90;73.00;;;;;;5094155;28;20028;-19
2021/12/02 09:57:04;;;;;;;14.57;8.35;;;8.90;73.10;;;;;;5094060;28;20036;-19
2021/12/02 10:02:14;;;;;;;10.70;6.82;;;9.00;72.80;;;;;;5093969;28;20143;-19
2021/12/02 10:04:47;;;;;;;10.93;6.97;;;9.10;72.90;;;;;;5094643;28;20024;-19
2021/12/02 10:07:33;;;;;;;10.98;7.13;;;9.10;72.80;;;;;;5093837;28;20495;-19
2021/12/02 10:10:10;;;;;;;11.27;6.75;;;9.20;72.50;;;;;;5093708;28;20042;-19
2021/12/02 10:12:42;;;;;;;6.95;4.57;;;9.20;72.40;;;;;;5093774;28;20114;-19
2021/12/02 10:15:13;;;;;;;9.27;5.63;;;9.30;72.30;;;;;;5093887;28;20032;-19
2021/12/02 10:17:45;;;;;;;12.13;6.85;;;9.40;72.30;;;;;;5093936;28;20028;-19
2021/12/02 10:23:17;;;;;;;16.05;10.27;;;9.50;72.20;;;;;;5094380;28;20024;-19
2021/12/02 10:25:50;;;;;;;17.77;11.93;;;9.50;72.40;;;;;;5093514;28;20028;-19
2021/12/02 10:28:19;;;;;;;10.55;6.75;;;9.60;72.30;;;;;;5093350;28;20026;-18
2021/12/02 10:30:48;;;;;;;16.10;10.48;;;9.60;72.10;;;;;;5093253;28;20078;-19
2021/12/02 10:33:27;;;;;;;16.17;9.98;;;9.60;72.10;;;;;;5093392;28;20031;-19
2021/12/02 10:35:53;;;;;;;12.30;6.65;;;9.60;72.20;;;;;;5092210;28;20021;-19
2021/12/02 10:38:37;;;;;;;13.68;9.23;;;9.60;72.00;;;;;;5093169;28;20035;-19
2021/12/02 10:41:10;;;;;;;12.00;7.55;;;9.70;72.20;;;;;;5093626;28;20020;-19
2021/12/02 10:43:57;;;;;;;18.03;11.17;;;9.70;72.10;;;;;;5093242;28;20056;-19
2021/12/02 10:46:23;;;;;;;13.68;8.77;;;9.70;72.10;;;;;;5093505;28;20430;-18
2021/12/02 10:48:51;;;;;;;16.38;10.70;;;9.70;72.10;;;;;;5093145;28;20044;-19
2021/12/02 10:51:46;;;;;;;14.50;9.38;;;9.70;72.10;;;;;;5093847;28;20028;-19
2021/12/02 10:54:21;;;;;;;11.57;6.95;;;9.70;72.60;;;;;;5093391;28;20103;-21
2021/12/02 10:56:55;;;;;;;9.65;5.57;;;9.70;72.20;;;;;;5093688;28;20145;-18
2021/12/02 10:59:50;;;;;;;12.95;7.35;;;9.70;72.20;;;;;;5093416;28;20067;-19
2021/12/02 11:02:24;;;;;;;9.10;5.03;;;9.80;72.30;;;;;;5092338;28;20028;-19
2021/12/02 11:04:54;;;;;;;;;;;9.90;72.20;;;;;;5093517;28;20028;-19
2021/12/02 11:07:31;;;;;;;9.93;6.05;;;9.90;72.50;;;;;;5093515;28;19919;-19
2021/12/02 11:10:04;;;;;;;11.07;7.00;;;9.90;72.10;;;;;;5093322;28;20052;-20
2021/12/02 11:12:32;;;;;;;12.02;6.68;;;9.90;72.10;;;;;;5096966;28;20101;-19
2021/12/02 11:15:08;;;;;;;7.30;4.97;;;9.90;71.90;;;;;;5097314;28;20028;-19
2021/12/02 11:17:47;;;;;;;13.32;7.88;;;9.90;71.90;;;;;;5097316;28;20035;-19
2021/12/02 11:20:18;;;;;;;11.38;6.85;;;10.00;71.90;;;;;;5096867;28;20028;-19
2021/12/02 11:22:44;;;;;;;10.95;6.93;;;10.00;71.80;;;;;;5095717;28;20396;-19
2021/12/02 11:25:12;;;;;;;10.10;6.57;;;10.00;71.80;;;;;;5097202;28;20088;-19
2021/12/02 11:27:48;;;;;;;11.95;7.57;;;10.00;71.80;;;;;;5097169;28;20028;-19
2021/12/02 11:30:17;;;;;;;12.35;7.78;;;10.00;71.80;;;;;;5096541;28;20024;-19
2021/12/02 11:33:15;;;;;;;19.27;11.70;;;10.10;71.80;;;;;;5097067;28;20036;-19
2021/12/02 11:35:47;;;;;;;8.48;5.22;;;10.10;72.00;;;;;;5094553;28;20047;-19
2021/12/02 11:38:18;;;;;;;7.88;4.85;;;10.10;71.80;;;;;;5077467;28;20027;-19
2021/12/02 11:40:47;;;;;;;12.73;7.68;;;10.10;71.80;;;;;;5094769;28;20032;-18
2021/12/02 11:43:17;;;;;;;8.15;4.93;;;10.10;71.80;;;;;;5077732;28;20031;-19
2021/12/02 11:45:48;;;;;;;8.82;5.20;;;10.10;71.70;;;;;;5094475;28;20037;-19
2021/12/02 11:48:17;;;;;;;10.63;5.50;;;10.10;71.60;;;;;;5094209;28;20028;-19
2021/12/02 11:50:44;;;;;;;9.93;6.53;;;10.10;71.60;;;;;;5094074;28;20147;-19
2021/12/02 11:53:11;;;;;;;6.43;3.90;;;10.20;71.60;;;;;;5094313;28;20514;-19
2021/12/02 11:55:41;;;;;;;13.43;8.25;;;10.20;71.60;;;;;;5094269;28;20038;-18
2021/12/02 11:58:08;;;;;;;14.15;9.30;;;10.20;71.60;;;;;;5094178;28;20103;-19
2021/12/02 12:00:35;;;;;;;10.95;6.78;;;10.20;71.60;;;;;;5093812;28;20024;-19
2021/12/02 12:03:12;;;;;;;10.98;6.88;;;10.30;71.60;;;;;;5094173;28;20073;-20
2021/12/02 12:06:02;;;;;;;9.38;6.28;;;10.30;71.50;;;;;;5094225;28;20036;-19
2021/12/02 12:08:33;;;;;;;8.85;5.75;;;10.40;71.50;;;;;;5093904;28;20024;-19
2021/12/02 12:11:28;;;;;;;11.13;7.32;;;10.40;71.40;;;;;;5094079;28;20047;-19
2021/12/02 12:13:55;;;;;;;;;;;10.40;71.40;;;;;;5096370;28;20533;-19
2021/12/02 12:16:26;;;;;;;18.63;11.80;;;10.50;71.50;;;;;;5096035;28;19904;-18
2021/12/02 12:18:54;;;;;;;12.82;7.40;;;10.50;71.20;;;;;;5096291;28;20392;-19
2021/12/02 12:21:39;;;;;;;15.48;10.02;;;10.50;71.20;;;;;;5095298;28;20066;-19
2021/12/02 12:24:06;;;;;;;11.52;6.72;;;10.50;71.10;;;;;;5095801;28;20031;-19
2021/12/02 12:26:37;;;;;;;11.95;7.57;;;10.60;71.00;;;;;;5095838;28;20032;-19
2021/12/02 12:29:03;;;;;;;7.70;4.65;;;10.60;71.00;;;;;;5095888;28;20031;-20
2021/12/02 12:31:31;;;;;;;9.18;5.53;;;10.60;71.00;;;;;;5095537;28;20031;-19
2021/12/02 12:34:00;;;;;;;7.68;5.15;;;10.60;71.00;;;;;;5095635;28;20035;-19
2021/12/02 12:36:38;;;;;;;12.52;7.97;;;10.70;70.90;;;;;;5095308;28;20056;-19
2021/12/02 12:39:23;;;;;;;10.32;5.88;;;10.70;70.90;;;;;;5095795;28;20028;-19
2021/12/02 12:42:16;;;;;;;9.48;6.43;;;10.80;70.80;;;;;;5095424;28;20028;-19
2021/12/02 12:44:55;;;;;;;8.60;5.28;;;10.80;70.70;;;;;;5095659;28;20082;-18
2021/12/02 12:47:41;;;;;;;10.20;6.03;;;10.90;70.60;;;;;;5095595;28;20020;-19
2021/12/02 12:50:25;;;;;;;11.75;6.85;;;10.90;70.50;;;;;;5094956;28;20093;-19
2021/12/02 12:53:07;;;;;;;8.20;4.88;;;10.90;70.40;;;;;;5095249;28;20039;-19
2021/12/02 12:55:37;;;;;;;6.22;3.65;;;10.90;70.40;;;;;;5095480;28;20114;-19
2021/12/02 12:58:07;;;;;;;8.65;5.45;;;10.90;70.30;;;;;;5095289;28;20100;-20
2021/12/02 13:00:57;;;;;;;20.95;13.82;;;10.90;70.30;;;;;;5094764;28;20031;-19
2021/12/02 13:03:38;;;;;;;10.70;6.68;;;10.90;70.60;;;;;;5095226;28;20028;-19
2021/12/02 13:06:17;;;;;;;8.98;5.00;;;10.90;70.50;;;;;;5095013;28;20031;-19
2021/12/02 13:08:55;;;;;;;9.80;5.95;;;10.90;70.50;;;;;;5094847;28;20388;-18
2021/12/02 13:11:24;;;;;;;8.98;5.90;;;10.90;70.50;;;;;;5095208;28;20372;-19
2021/12/02 13:13:53;;;;;;;12.35;8.27;;;10.80;70.50;;;;;;5093378;28;20391;-19
2021/12/02 13:16:20;;;;;;;13.73;8.90;;;10.80;70.70;;;;;;5094554;28;20032;-19
2021/12/02 13:19:14;;;;;;;13.00;8.65;;;10.80;70.60;;;;;;5094700;28;20031;-20
2021/12/02 13:21:45;;;;;;;14.18;9.65;;;10.80;70.70;;;;;;5094068;28;20044;-19